Time,TemperatureF,DewpointF,PressureIn,WindDirection,WindDirectionDegrees,WindSpeedMPH,WindSpeedGustMPH,Humidity,HourlyPrecipIn,Conditions,Clouds,dailyrainin,SoftwareType,DateUTC
2013-09-26 00:29:00,52.5,41.5,29.85,NW,317,3.0,3.0,66,0.00,,,0.00,Wunderground v.1.15,2013-09-26 07:29:00,
2013-09-26 00:59:00,51.5,41.3,29.85,North,1,4.0,4.0,68,0.00,,,0.00,Wunderground v.1.15,2013-09-26 07:59:00,
2013-09-26 01:29:00,52.3,41.3,29.85,NNW,327,5.0,5.0,66,0.00,,,0.00,Wunderground v.1.15,2013-09-26 08:29:00,
2013-09-26 01:58:00,52.1,40.7,29.85,NW,315,5.0,5.0,65,0.00,,,0.00,Wunderground v.1.15,2013-09-26 08:58:00,
2013-09-26 02:29:00,51.7,40.7,29.85,NNW,340,4.0,4.0,66,0.00,,,0.00,Wunderground v.1.15,2013-09-26 09:29:00,
2013-09-26 02:59:00,50.7,40.5,29.86,West,274,2.0,3.0,68,0.00,,,0.00,Wunderground v.1.15,2013-09-26 09:59:00,
2013-09-26 03:29:00,51.2,39.8,29.86,NW,324,4.0,4.0,65,0.00,,,0.00,Wunderground v.1.15,2013-09-26 10:29:00,
2013-09-26 03:59:00,50.9,39.5,29.86,NW,305,4.0,4.0,65,0.00,,,0.00,Wunderground v.1.15,2013-09-26 10:59:00,
2013-09-26 04:29:00,50.6,39.7,29.86,WNW,298,2.0,2.0,66,0.00,,,0.00,Wunderground v.1.15,2013-09-26 11:29:00,
2013-09-26 04:59:00,49.8,38.9,29.87,WNW,293,1.0,1.0,66,0.00,,,0.00,Wunderground v.1.15,2013-09-26 11:59:00,
2013-09-26 05:29:00,49.4,38.9,29.87,WNW,300,1.0,4.0,67,0.00,,,0.00,Wunderground v.1.15,2013-09-26 12:29:00,
2013-09-26 05:59:00,49.3,38.4,29.87,North,360,2.0,2.0,66,0.00,,,0.00,Wunderground v.1.15,2013-09-26 12:59:00,
2013-09-26 06:29:00,50.3,38.6,29.88,WNW,298,4.0,4.0,64,0.00,,,0.00,Wunderground v.1.15,2013-09-26 13:29:00,
2013-09-26 06:59:00,50.0,38.3,29.88,NNW,329,5.0,5.0,64,0.00,,,0.00,Wunderground v.1.15,2013-09-26 13:59:00,
2013-09-26 07:29:00,49.2,38.7,29.90,ENE,74,2.0,2.0,67,0.00,,,0.00,Wunderground v.1.15,2013-09-26 14:29:00,
2013-09-26 07:59:00,49.5,40.1,29.90,WNW,290,3.0,3.0,70,0.00,,,0.00,Wunderground v.1.15,2013-09-26 14:59:00,
2013-09-26 08:29:00,52.9,39.4,29.92,North,1,3.0,3.0,60,0.00,,,0.00,Wunderground v.1.15,2013-09-26 15:29:00,
2013-09-26 08:58:00,54.8,39.8,29.93,NW,309,4.0,5.0,57,0.00,,,0.00,Wunderground v.1.15,2013-09-26 15:58:00,
2013-09-26 09:29:00,56.6,39.2,29.94,WNW,291,3.0,3.0,52,0.00,,,0.00,Wunderground v.1.15,2013-09-26 16:29:00,
2013-09-26 09:58:00,58.8,38.6,29.94,WNW,290,4.0,6.0,47,0.00,,,0.00,Wunderground v.1.15,2013-09-26 16:58:00,
2013-09-26 10:29:00,62.3,37.0,29.94,NE,34,2.0,2.0,39,0.00,,,0.00,Wunderground v.1.15,2013-09-26 17:29:00,
2013-09-26 10:59:00,64.0,37.2,29.92,NNW,333,4.0,4.0,37,0.00,,,0.00,Wunderground v.1.15,2013-09-26 17:59:00,
2013-09-26 11:29:00,64.7,37.8,29.92,NNW,338,3.0,3.0,37,0.00,,,0.00,Wunderground v.1.15,2013-09-26 18:29:00,
2013-09-26 11:59:00,66.2,37.7,29.92,WNW,296,3.0,4.0,35,0.00,,,0.00,Wunderground v.1.15,2013-09-26 18:59:00,
2013-09-26 12:29:00,67.1,35.4,29.91,WNW,296,3.0,5.0,31,0.00,,,0.00,Wunderground v.1.15,2013-09-26 19:29:00,
2013-09-26 12:59:00,69.0,35.4,29.91,WNW,283,4.0,4.0,29,0.00,,,0.00,Wunderground v.1.15,2013-09-26 19:59:00,
2013-09-26 13:28:00,68.5,36.7,29.89,West,279,7.0,7.0,31,0.00,,,0.00,Wunderground v.1.15,2013-09-26 20:28:00,
2013-09-26 13:59:00,69.7,36.9,29.89,West,279,5.0,5.0,30,0.00,,,0.00,Wunderground v.1.15,2013-09-26 20:59:00,
2013-09-26 14:29:00,69.1,38.8,29.88,WNW,287,8.0,10.0,33,0.00,,,0.00,Wunderground v.1.15,2013-09-26 21:29:00,
2013-09-26 14:59:00,67.9,41.3,29.88,WNW,294,10.0,10.0,38,0.00,,,0.00,Wunderground v.1.15,2013-09-26 21:59:00,
2013-09-26 15:29:00,68.2,42.9,29.88,WNW,286,9.0,12.0,40,0.00,,,0.00,Wunderground v.1.15,2013-09-26 22:29:00,
2013-09-26 15:58:00,65.9,42.8,29.87,WNW,294,13.0,16.0,43,0.00,,,0.00,Wunderground v.1.15,2013-09-26 22:58:00,
2013-09-26 16:29:00,65.7,43.8,29.87,NW,309,12.0,12.0,45,0.00,,,0.00,Wunderground v.1.15,2013-09-26 23:29:00,
2013-09-26 16:59:00,64.2,45.2,29.88,West,273,12.0,12.0,50,0.00,,,0.00,Wunderground v.1.15,2013-09-26 23:59:00,
2013-09-26 17:29:00,64.0,44.4,29.88,WNW,293,7.0,7.0,49,0.00,,,0.00,Wunderground v.1.15,2013-09-27 00:29:00,
2013-09-26 17:58:00,63.5,45.0,29.89,NW,311,5.0,5.0,51,0.00,,,0.00,Wunderground v.1.15,2013-09-27 00:58:00,
2013-09-26 18:29:00,62.1,45.2,29.89,NW,304,4.0,5.0,54,0.00,,,0.00,Wunderground v.1.15,2013-09-27 01:29:00,
2013-09-26 18:58:00,60.1,43.9,29.91,NW,312,2.0,2.0,55,0.00,,,0.00,Wunderground v.1.15,2013-09-27 01:58:00,
2013-09-26 19:28:00,58.6,44.3,29.91,WNW,294,1.0,5.0,59,0.00,,,0.00,Wunderground v.1.15,2013-09-27 02:28:00,
2013-09-26 19:59:00,56.3,45.1,29.92,WNW,295,3.0,3.0,66,0.00,,,0.00,Wunderground v.1.15,2013-09-27 02:59:00,
2013-09-26 20:28:00,55.3,45.3,29.94,WNW,292,4.0,5.0,69,0.00,,,0.00,Wunderground v.1.15,2013-09-27 03:28:00,
2013-09-26 20:59:00,54.0,45.2,29.95,WNW,294,7.0,8.0,72,0.00,,,0.00,Wunderground v.1.15,2013-09-27 03:59:00,
2013-09-26 21:29:00,52.8,44.7,29.96,West,281,4.0,7.0,74,0.00,,,0.00,Wunderground v.1.15,2013-09-27 04:29:00,
2013-09-26 21:58:00,54.0,44.4,29.97,WNW,292,6.0,6.0,70,0.00,,,0.00,Wunderground v.1.15,2013-09-27 04:58:00,
2013-09-26 22:29:00,56.4,44.0,29.97,WNW,301,3.0,4.0,63,0.00,,,0.00,Wunderground v.1.15,2013-09-27 05:29:00,
2013-09-26 22:59:00,57.8,43.1,29.98,NNW,334,5.0,5.0,58,0.00,,,0.00,Wunderground v.1.15,2013-09-27 05:59:00,
2013-09-26 23:28:00,58.0,42.4,29.98,WNW,286,4.0,4.0,56,0.00,,,0.00,Wunderground v.1.15,2013-09-27 06:28:00,
2013-09-26 23:59:00,58.8,42.2,29.98,WNW,289,4.0,4.0,54,0.00,,,0.00,Wunderground v.1.15,2013-09-27 06:59:00,